createdAt,value
2023-04-22T07:09:29.483Z,18.62
2023-04-22T07:11:59.039Z,18.44
2023-04-22T07:14:30.843Z,18.30
2023-04-22T07:16:59.656Z,18.23
2023-04-22T07:19:27.734Z,18.23
2023-04-22T07:21:56.013Z,18.29
2023-04-22T07:24:24.286Z,18.41
2023-04-22T07:26:52.561Z,18.49
2023-04-22T07:29:20.941Z,18.52
2023-04-22T07:31:49.080Z,18.53
2023-04-22T07:34:18.437Z,18.52
2023-04-22T07:36:46.584Z,18.45
2023-04-22T07:39:14.651Z,18.34
2023-04-22T07:41:42.744Z,18.25
2023-04-22T07:44:13.089Z,18.18
2023-04-22T07:46:41.331Z,18.16
2023-04-22T07:49:09.600Z,18.19
2023-04-22T07:51:37.983Z,18.25
2023-04-22T07:54:06.363Z,18.29
2023-04-22T07:56:35.170Z,18.33
2023-04-22T07:59:03.949Z,18.34
2023-04-22T08:01:32.219Z,18.34
2023-04-22T08:04:00.482Z,18.30
2023-04-22T08:06:28.908Z,18.13
2023-04-22T08:08:56.991Z,17.89
2023-04-22T08:11:25.138Z,17.64
2023-04-22T08:13:53.161Z,17.36
2023-04-22T08:16:21.322Z,17.14
2023-04-22T08:18:49.639Z,17.02
2023-04-22T08:21:17.831Z,16.92
2023-04-22T08:23:46.503Z,16.81
2023-04-22T08:26:16.334Z,16.72
2023-04-22T08:28:44.500Z,16.66
2023-04-22T08:31:13.182Z,16.60
2023-04-22T08:33:41.862Z,16.49
2023-04-22T08:36:11.286Z,16.41
2023-04-22T08:38:39.636Z,16.43
2023-04-22T08:41:07.679Z,16.52
2023-04-22T08:43:35.882Z,16.54
2023-04-22T08:46:04.106Z,16.48
2023-04-22T08:48:33.039Z,16.46
2023-04-22T08:51:01.233Z,16.51
2023-04-22T08:53:29.619Z,16.58
2023-04-22T08:55:57.884Z,16.62
2023-04-22T08:58:26.188Z,16.66
2023-04-22T09:00:54.849Z,16.69
2023-04-22T09:03:23.398Z,16.67
2023-04-22T09:05:52.638Z,16.56
2023-04-22T09:08:21.099Z,16.47
2023-04-22T09:10:49.159Z,16.45
2023-04-22T09:13:17.548Z,16.51
2023-04-22T09:15:46.401Z,16.58
2023-04-22T09:18:17.583Z,16.64
2023-04-22T09:20:47.394Z,16.67
2023-04-22T09:23:16.188Z,16.63
2023-04-22T09:25:45.005Z,16.60
2023-04-22T09:28:17.163Z,16.62
2023-04-22T09:30:46.234Z,16.62
2023-04-22T09:33:14.272Z,16.59
2023-04-22T09:35:43.297Z,16.57
2023-04-22T09:38:12.299Z,16.54
2023-04-22T09:40:44.412Z,16.44
2023-04-22T09:43:12.883Z,16.37
2023-04-22T09:45:44.053Z,16.35
2023-04-22T09:48:13.829Z,16.33
2023-04-22T09:50:49.749Z,16.34
2023-04-22T09:53:19.294Z,16.37
2023-04-22T09:55:49.691Z,16.41
2023-04-22T09:58:19.084Z,16.46
2023-04-22T10:00:51.889Z,16.50
2023-04-22T10:03:20.511Z,16.53
2023-04-22T10:05:48.793Z,16.51
2023-04-22T10:08:17.229Z,16.39
2023-04-22T10:10:45.916Z,16.26
2023-04-22T10:13:13.931Z,16.22
2023-04-22T10:15:52.715Z,16.22
2023-04-22T10:18:25.890Z,16.25
2023-04-22T10:20:54.548Z,16.29
2023-04-22T10:23:23.165Z,16.32
2023-04-22T10:25:54.660Z,16.35
2023-04-22T10:28:24.197Z,16.39
2023-04-22T10:30:52.384Z,16.44
2023-04-22T10:33:34.904Z,16.50
2023-04-22T10:36:14.950Z,16.47
2023-04-22T10:38:55.303Z,16.42
2023-04-22T10:41:30.539Z,16.33
2023-04-22T10:44:00.346Z,16.25
2023-04-22T10:46:38.045Z,16.25
2023-04-22T10:49:13.788Z,16.28
2023-04-22T10:51:46.569Z,16.29
2023-04-22T10:54:32.096Z,16.32
2023-04-22T10:57:11.494Z,16.38
2023-04-22T10:59:45.915Z,16.45
2023-04-22T11:02:14.920Z,16.51
2023-04-22T11:04:43.305Z,16.57
2023-04-22T11:07:22.769Z,16.62
2023-04-22T11:09:52.366Z,16.65
2023-04-22T11:12:35.897Z,16.63
2023-04-22T11:15:07.158Z,16.61
2023-04-22T11:17:36.328Z,16.64
2023-04-22T11:20:05.356Z,16.68
2023-04-22T11:22:44.239Z,16.71
2023-04-22T11:25:12.354Z,16.74
2023-04-22T11:27:43.425Z,16.72
2023-04-22T11:30:13.678Z,16.67
2023-04-22T11:32:47.648Z,16.62
2023-04-22T11:35:19.446Z,16.59
2023-04-22T11:37:51.861Z,16.50
2023-04-22T11:40:30.959Z,16.41
2023-04-22T11:43:02.370Z,16.37
2023-04-22T11:45:31.323Z,16.37
2023-04-22T11:48:01.929Z,16.37
2023-04-22T11:50:33.006Z,16.36
2023-04-22T11:53:02.676Z,16.32
2023-04-22T11:55:35.073Z,16.29
2023-04-22T11:58:26.696Z,16.25
2023-04-22T12:00:56.401Z,16.22
2023-04-22T12:03:26.461Z,16.25
2023-04-22T12:05:58.847Z,16.29
2023-04-22T12:08:31.606Z,16.34
2023-04-22T12:11:05.899Z,16.38
2023-04-22T12:13:38.470Z,16.39
2023-04-22T12:16:12.660Z,16.41
2023-04-22T12:18:43.391Z,16.43
2023-04-22T12:21:12.794Z,16.45
2023-04-22T12:24:05.149Z,16.46
2023-04-22T12:26:34.119Z,16.46
2023-04-22T12:29:02.283Z,16.48
2023-04-22T12:31:30.612Z,16.52
2023-04-22T12:34:00.473Z,16.54
2023-04-22T12:36:32.553Z,16.54
2023-04-22T12:39:00.933Z,16.55
2023-04-22T12:41:29.060Z,16.58
2023-04-22T12:43:57.173Z,16.61
2023-04-22T12:46:25.465Z,16.62
2023-04-22T12:48:53.717Z,16.63
2023-04-22T12:51:22.614Z,16.65
2023-04-22T12:53:50.786Z,16.68
2023-04-22T12:56:18.900Z,16.66
2023-04-22T12:58:47.844Z,16.62
2023-04-22T13:01:15.977Z,16.59
2023-04-22T13:03:44.513Z,16.57
2023-04-22T13:06:12.881Z,16.56
2023-04-22T13:08:41.072Z,16.54
2023-04-22T13:11:09.345Z,16.51
2023-04-22T13:13:37.428Z,16.44
2023-04-22T13:16:06.006Z,16.37
2023-04-22T13:18:34.262Z,16.29
2023-04-22T13:21:02.395Z,16.22
2023-04-22T13:23:31.115Z,16.15
2023-04-22T13:25:59.289Z,16.08
2023-04-22T13:28:28.107Z,16.00
2023-04-22T13:30:56.353Z,15.89
2023-04-22T13:33:24.617Z,15.83
2023-04-22T13:35:52.766Z,15.76
2023-04-22T13:38:21.289Z,15.67
2023-04-22T13:40:49.387Z,15.63
2023-04-22T13:43:18.129Z,15.58
2023-04-22T13:45:48.338Z,15.52
2023-04-22T13:48:16.498Z,15.45
2023-04-22T13:50:44.805Z,15.39
2023-04-22T13:53:13.974Z,15.33
2023-04-22T13:55:43.416Z,15.31
2023-04-22T13:58:11.690Z,15.30
2023-04-22T14:00:39.869Z,15.30
2023-04-22T14:03:08.308Z,15.31
2023-04-22T14:05:37.016Z,15.32
2023-04-22T14:08:05.151Z,15.34
2023-04-22T14:10:33.326Z,15.34
2023-04-22T14:13:01.662Z,15.33
2023-04-22T14:15:29.967Z,15.34
2023-04-22T14:17:58.037Z,15.36
2023-04-22T14:20:26.255Z,15.38
2023-04-22T14:22:54.367Z,15.40
2023-04-22T14:25:22.442Z,15.44
2023-04-22T14:27:50.911Z,15.49
2023-04-22T14:30:20.425Z,15.53
2023-04-22T14:32:49.469Z,15.56
2023-04-22T14:35:18.212Z,15.57
2023-04-22T14:37:46.671Z,15.59
2023-04-22T14:40:15.250Z,15.61
2023-04-22T14:42:43.914Z,15.63
2023-04-22T14:45:14.729Z,15.63
2023-04-22T14:47:43.673Z,15.64
2023-04-22T14:50:11.853Z,15.66
2023-04-22T14:52:41.220Z,15.68
2023-04-22T14:55:21.940Z,15.68
2023-04-22T14:57:56.777Z,15.68
2023-04-22T15:00:26.143Z,15.66
2023-04-22T15:02:54.858Z,15.65
2023-04-22T15:05:23.732Z,15.63
2023-04-22T15:07:51.886Z,15.60
2023-04-22T15:10:20.243Z,15.57
2023-04-22T15:12:48.372Z,15.55
2023-04-22T15:15:18.158Z,15.53
2023-04-22T15:17:46.727Z,15.51
2023-04-22T15:20:15.566Z,15.48
2023-04-22T15:22:43.865Z,15.45
2023-04-22T15:25:11.970Z,15.42
2023-04-22T15:27:40.265Z,15.38
2023-04-22T15:30:08.932Z,15.35
2023-04-22T15:32:39.376Z,15.31
2023-04-22T15:35:08.222Z,15.27
2023-04-22T15:37:37.169Z,15.23
2023-04-22T15:40:07.055Z,15.20
2023-04-22T15:42:35.285Z,15.16
2023-04-22T15:45:04.154Z,15.12
2023-04-22T15:47:33.368Z,15.08
2023-04-22T15:50:09.052Z,15.04
2023-04-22T15:52:38.084Z,15.00
2023-04-22T15:55:07.871Z,14.97
2023-04-22T15:57:37.072Z,14.96
2023-04-22T16:00:12.948Z,14.93
2023-04-22T16:02:45.091Z,14.90
2023-04-22T16:05:14.809Z,14.88
2023-04-22T16:07:43.493Z,14.84
2023-04-22T16:10:12.194Z,14.82
2023-04-22T16:12:42.094Z,14.80
2023-04-22T16:15:10.718Z,14.78
2023-04-22T16:17:38.790Z,14.75
2023-04-22T16:20:08.672Z,14.71
2023-04-22T16:22:37.297Z,14.69
2023-04-22T16:25:07.124Z,14.66
2023-04-22T16:27:35.757Z,14.62
2023-04-22T16:30:04.459Z,14.59
2023-04-22T16:32:33.023Z,14.55
2023-04-22T16:35:01.590Z,14.51
2023-04-22T16:37:31.115Z,14.49
2023-04-22T16:39:59.336Z,14.44
2023-04-22T16:42:27.870Z,14.39
2023-04-22T16:44:56.149Z,14.34
2023-04-22T16:47:24.630Z,14.30
2023-04-22T16:49:52.796Z,14.25
2023-04-22T16:52:20.911Z,14.20
2023-04-22T16:54:51.689Z,14.15
2023-04-22T16:57:20.069Z,14.10
2023-04-22T16:59:48.239Z,14.04
2023-04-22T17:02:16.356Z,13.98
2023-04-22T17:04:44.586Z,13.94
2023-04-22T17:07:12.809Z,13.89
2023-04-22T17:09:41.582Z,13.82
2023-04-22T17:12:10.141Z,13.78
2023-04-22T17:14:38.619Z,13.73
2023-04-22T17:17:06.894Z,13.66
2023-04-22T17:19:36.607Z,13.60
2023-04-22T17:22:04.876Z,13.55
2023-04-22T17:24:33.348Z,13.50
2023-04-22T17:27:01.946Z,13.44
2023-04-22T17:29:30.241Z,13.39
2023-04-22T17:31:58.298Z,13.33
2023-04-22T17:34:27.036Z,13.27
2023-04-22T17:36:55.251Z,13.22
2023-04-22T17:39:23.398Z,13.18
2023-04-22T17:41:51.508Z,13.13
2023-04-22T17:44:19.695Z,13.09
2023-04-22T17:46:48.025Z,13.06
2023-04-22T17:49:16.139Z,13.03
2023-04-22T17:51:44.172Z,13.00
2023-04-22T17:54:12.496Z,12.97
2023-04-22T17:56:41.054Z,12.93
2023-04-22T17:59:11.489Z,12.90
2023-04-22T18:01:39.653Z,12.88
2023-04-22T18:04:08.085Z,12.86
2023-04-22T18:06:37.129Z,12.84
2023-04-22T18:09:05.913Z,12.81
2023-04-22T18:11:34.537Z,12.77
2023-04-22T18:14:02.719Z,12.74
2023-04-22T18:16:31.224Z,12.70
2023-04-22T18:19:02.356Z,12.65
2023-04-22T18:21:31.592Z,12.58
2023-04-22T18:24:00.004Z,12.51
2023-04-22T18:26:28.570Z,12.46
2023-04-22T18:28:56.731Z,12.42
2023-04-22T18:31:24.888Z,12.39
2023-04-22T18:33:53.177Z,12.35
2023-04-22T18:36:21.550Z,12.32
2023-04-22T18:38:49.730Z,12.28
2023-04-22T18:41:18.206Z,12.25
2023-04-22T18:43:48.472Z,12.22
2023-04-22T18:46:16.630Z,12.19
2023-04-22T18:48:44.878Z,12.16
2023-04-22T18:51:13.676Z,12.13
2023-04-22T18:53:41.641Z,12.09
2023-04-22T18:56:09.919Z,12.06
2023-04-22T18:58:38.197Z,12.02
2023-04-22T19:01:07.345Z,11.98
2023-04-22T19:03:36.086Z,11.95
2023-04-22T19:06:05.138Z,11.91
2023-04-22T19:08:33.892Z,11.88
2023-04-22T19:11:02.040Z,11.85
2023-04-22T19:13:30.510Z,11.82
2023-04-22T19:15:58.901Z,11.79
2023-04-22T19:18:27.189Z,11.77
2023-04-22T19:20:55.471Z,11.73
2023-04-22T19:23:23.810Z,11.70
2023-04-22T19:25:52.008Z,11.67
2023-04-22T19:28:20.259Z,11.63
2023-04-22T19:30:48.550Z,11.62
2023-04-22T19:33:16.934Z,11.60
2023-04-22T19:35:45.758Z,11.57
2023-04-22T19:38:19.083Z,11.55
2023-04-22T19:40:47.692Z,11.53
2023-04-22T19:43:17.161Z,11.50
2023-04-22T19:45:46.386Z,11.46
2023-04-22T19:48:15.077Z,11.43
2023-04-22T19:50:43.344Z,11.38
2023-04-22T19:53:12.039Z,11.34
2023-04-22T19:55:40.621Z,11.31
2023-04-22T19:58:08.669Z,11.27
2023-04-22T20:00:37.391Z,11.23
2023-04-22T20:03:07.190Z,11.20
2023-04-22T20:05:37.249Z,11.18
2023-04-22T20:08:05.406Z,11.17
2023-04-22T20:10:33.950Z,11.15
2023-04-22T20:13:04.078Z,11.14
2023-04-22T20:15:34.313Z,11.13
2023-04-22T20:18:02.958Z,11.12
2023-04-22T20:20:31.299Z,11.12
2023-04-22T20:23:01.490Z,11.11
2023-04-22T20:25:30.966Z,11.12
2023-04-22T20:27:59.168Z,11.13
2023-04-22T20:30:27.555Z,11.16
2023-04-22T20:32:56.356Z,11.17
2023-04-22T20:35:25.741Z,11.18
2023-04-22T20:37:54.119Z,11.19
2023-04-22T20:40:24.618Z,11.19
2023-04-22T20:42:53.128Z,11.18
2023-04-22T20:45:21.132Z,11.18
2023-04-22T20:47:49.370Z,11.18
2023-04-22T20:50:17.635Z,11.16
2023-04-22T20:52:47.590Z,11.15
2023-04-22T20:55:17.030Z,11.12
2023-04-22T20:57:45.446Z,11.10
2023-04-22T21:00:14.222Z,11.08
2023-04-22T21:02:43.273Z,11.05
2023-04-22T21:05:12.254Z,11.03
2023-04-22T21:07:41.594Z,11.01
2023-04-22T21:10:10.729Z,11.00
2023-04-22T21:12:39.573Z,10.99
2023-04-22T21:15:08.336Z,10.97
2023-04-22T21:17:36.639Z,10.95
2023-04-22T21:20:06.377Z,10.94
2023-04-22T21:22:34.789Z,10.93
2023-04-22T21:25:02.930Z,10.92
2023-04-22T21:27:31.713Z,10.90
2023-04-22T21:29:59.789Z,10.88
2023-04-22T21:32:29.562Z,10.87
2023-04-22T21:34:57.752Z,10.86
2023-04-22T21:37:26.154Z,10.87
2023-04-22T21:39:54.737Z,10.87
2023-04-22T21:42:22.943Z,10.86
2023-04-22T21:44:51.396Z,10.86
2023-04-22T21:47:19.458Z,10.86
2023-04-22T21:49:47.668Z,10.86
2023-04-22T21:52:16.415Z,10.87
2023-04-22T21:54:44.683Z,10.90
2023-04-22T21:57:13.318Z,10.92
2023-04-22T21:59:41.640Z,10.93
2023-04-22T22:02:09.732Z,10.93
2023-04-22T22:04:39.017Z,10.95
2023-04-22T22:07:07.825Z,10.96
2023-04-22T22:09:36.500Z,10.97
2023-04-22T22:12:04.834Z,10.99
2023-04-22T22:14:33.992Z,11.01
2023-04-22T22:17:02.257Z,11.03
2023-04-22T22:19:31.987Z,11.03
2023-04-22T22:22:00.069Z,11.03
2023-04-22T22:24:28.272Z,11.03
2023-04-22T22:26:58.022Z,11.02
2023-04-22T22:29:26.196Z,11.01
2023-04-22T22:31:54.389Z,10.99
2023-04-22T22:34:22.530Z,10.98
2023-04-22T22:36:50.719Z,10.96
2023-04-22T22:39:18.820Z,10.93
2023-04-22T22:41:47.472Z,10.91
2023-04-22T22:44:15.728Z,10.89
2023-04-22T22:46:43.827Z,10.87
2023-04-22T22:49:12.106Z,10.85
2023-04-22T22:51:40.690Z,10.85
2023-04-22T22:54:09.073Z,10.84
2023-04-22T22:56:37.251Z,10.82
2023-04-22T22:59:05.353Z,10.80
2023-04-22T23:01:33.492Z,10.79
2023-04-22T23:04:01.845Z,10.78
2023-04-22T23:06:32.085Z,10.77
2023-04-22T23:09:00.380Z,10.75
2023-04-22T23:11:28.661Z,10.73
2023-04-22T23:13:57.926Z,10.69
2023-04-22T23:16:27.274Z,10.66
2023-04-22T23:18:55.410Z,10.65
2023-04-22T23:21:23.719Z,10.63
2023-04-22T23:23:51.899Z,10.60
2023-04-22T23:26:20.570Z,10.56
2023-04-22T23:28:49.240Z,10.51
2023-04-22T23:31:17.372Z,10.47
2023-04-22T23:33:45.691Z,10.42
2023-04-22T23:36:13.805Z,10.39
2023-04-22T23:38:42.010Z,10.35
2023-04-22T23:41:10.323Z,10.30
2023-04-22T23:43:38.490Z,10.25
2023-04-22T23:46:06.842Z,10.19
2023-04-22T23:48:34.910Z,10.15
2023-04-22T23:51:03.264Z,10.11
2023-04-22T23:53:31.458Z,10.06
2023-04-22T23:56:00.060Z,10.01
2023-04-22T23:58:28.741Z,9.99
